Time;durP1;ratioP1;P1;durP2;ratioP2;P2;SDS_P1;SDS_P2;PMS_P1;PMS_P2;Temp;Humidity;BMP_temperature;BMP_pressure;BME280_temperature;BME280_humidity;BME280_pressure;Samples;Min_cycle;Max_cycle;Signal;HPM_P1;HPM_P2
2021/06/07 00:00:46;;;;;;;58.85;40.17;;;15.90;99.90;;;;;;4989722;28;20026;-58
2021/06/07 00:03:12;;;;;;;66.18;42.47;;;15.90;99.90;;;;;;4994922;28;20023;-59
2021/06/07 00:05:38;;;;;;;65.20;41.38;;;15.90;99.90;;;;;;4995840;28;20113;-58
2021/06/07 00:08:04;;;;;;;65.75;42.38;;;15.80;99.90;;;;;;5002592;28;20038;-59
2021/06/07 00:10:29;;;;;;;60.80;40.83;;;15.80;99.90;;;;;;4992885;28;20030;-60
2021/06/07 00:12:55;;;;;;;65.28;44.78;;;15.70;99.90;;;;;;4998715;28;20030;-60
2021/06/07 00:15:23;;;;;;;62.20;40.22;;;15.70;99.90;;;;;;4995788;28;20436;-60
2021/06/07 00:17:49;;;;;;;63.92;40.63;;;15.80;99.90;;;;;;4990415;28;20019;-58
2021/06/07 00:20:27;;;;;;;68.82;41.58;;;15.70;99.90;;;;;;4999658;28;20036;-60
2021/06/07 00:22:53;;;;;;;61.85;40.60;;;15.80;99.90;;;;;;4992231;28;20044;-58
2021/06/07 00:25:18;;;;;;;61.35;38.58;;;15.80;99.90;;;;;;4998075;28;20021;-61
2021/06/07 00:27:44;;;;;;;63.75;38.90;;;15.70;99.90;;;;;;4991805;28;20133;-58
2021/06/07 00:30:10;;;;;;;53.85;36.92;;;15.70;99.90;;;;;;4988290;28;20535;-56
2021/06/07 00:32:36;;;;;;;52.83;35.42;;;15.70;99.90;;;;;;4982931;28;20033;-60
2021/06/07 00:35:02;;;;;;;62.80;38.47;;;15.70;99.90;;;;;;4988348;28;20023;-61
2021/06/07 00:37:28;;;;;;;56.83;36.20;;;15.60;99.90;;;;;;5000977;28;20038;-59
2021/06/07 00:39:53;;;;;;;54.08;37.00;;;15.70;99.90;;;;;;4990723;28;20064;-57
2021/06/07 00:42:19;;;;;;;57.80;36.67;;;15.60;99.90;;;;;;4983573;28;20084;-58
2021/06/07 00:44:46;;;;;;;63.55;37.35;;;15.60;99.90;;;;;;4995691;28;20032;-57
2021/06/07 00:47:12;;;;;;;57.40;36.50;;;15.60;99.90;;;;;;5002570;28;20029;-58
2021/06/07 00:49:38;;;;;;;53.25;36.92;;;15.60;99.90;;;;;;5000677;28;20036;-57
2021/06/07 00:52:04;;;;;;;60.83;36.42;;;15.60;99.90;;;;;;5001975;28;20407;-58
2021/06/07 00:54:29;;;;;;;57.30;35.00;;;15.60;99.90;;;;;;4985421;28;20041;-58
2021/06/07 00:56:55;;;;;;;57.08;36.58;;;15.60;99.90;;;;;;4993887;28;20455;-57
2021/06/07 00:59:20;;;;;;;50.20;34.80;;;15.60;99.90;;;;;;4999745;28;20038;-58
2021/06/07 01:01:46;;;;;;;59.92;38.53;;;15.50;99.90;;;;;;4998581;28;20045;-59
2021/06/07 01:04:12;;;;;;;57.55;36.78;;;15.50;99.90;;;;;;5002997;28;20013;-58
2021/06/07 01:06:37;;;;;;;64.05;39.75;;;15.60;99.90;;;;;;4998777;28;20026;-59
2021/06/07 01:09:05;;;;;;;60.45;39.05;;;15.60;99.90;;;;;;4996030;28;20029;-59
2021/06/07 01:11:31;;;;;;;55.40;36.42;;;15.60;99.90;;;;;;5002665;28;20026;-60
2021/06/07 01:13:57;;;;;;;60.03;36.08;;;15.60;99.90;;;;;;5002265;28;20087;-59
2021/06/07 01:16:23;;;;;;;66.93;39.50;;;15.60;99.90;;;;;;4997435;28;20062;-59
2021/06/07 01:18:50;;;;;;;58.03;36.95;;;15.60;99.90;;;;;;4989602;28;20057;-59
2021/06/07 01:21:19;;;;;;;50.92;34.70;;;15.60;99.90;;;;;;4990714;28;20516;-58
2021/06/07 01:23:46;;;;;;;53.80;35.03;;;15.60;99.90;;;;;;4998443;28;20026;-59
2021/06/07 01:26:14;;;;;;;59.45;36.88;;;15.60;99.90;;;;;;4987631;28;20038;-59
2021/06/07 01:28:41;;;;;;;57.17;34.97;;;15.60;99.90;;;;;;4998668;28;20058;-57
2021/06/07 01:31:08;;;;;;;57.33;34.28;;;15.60;99.90;;;;;;4989872;28;20033;-60
2021/06/07 01:33:35;;;;;;;52.63;35.38;;;15.50;99.90;;;;;;4983387;28;20534;-60
2021/06/07 01:36:02;;;;;;;52.42;35.70;;;15.50;99.90;;;;;;4995565;28;20041;-58
2021/06/07 01:38:28;;;;;;;54.17;35.30;;;15.60;99.90;;;;;;4982774;28;20034;-58
2021/06/07 01:40:59;;;;;;;57.92;37.95;;;15.50;99.90;;;;;;4986906;28;20034;-59
2021/06/07 01:43:26;;;;;;;53.15;35.05;;;15.60;99.90;;;;;;4981921;28;20066;-59
2021/06/07 01:45:53;;;;;;;50.38;35.83;;;15.50;99.90;;;;;;4979789;28;20035;-59
2021/06/07 01:48:19;;;;;;;52.42;35.03;;;15.60;99.90;;;;;;4985101;28;21823;-56
2021/06/07 01:50:46;;;;;;;56.53;35.38;;;15.50;99.90;;;;;;4982705;28;20034;-58
2021/06/07 01:53:14;;;;;;;53.42;34.45;;;15.50;99.90;;;;;;4983801;28;20039;-60
2021/06/07 01:55:43;;;;;;;53.85;35.65;;;15.50;99.90;;;;;;4980185;28;20092;-58
2021/06/07 01:58:10;;;;;;;53.22;34.05;;;15.40;99.90;;;;;;4983760;28;20030;-59
2021/06/07 02:00:40;;;;;;;57.47;35.20;;;15.40;99.90;;;;;;4997535;28;20415;-59
2021/06/07 02:03:07;;;;;;;46.70;33.25;;;15.40;99.90;;;;;;5001434;28;20060;-59
2021/06/07 02:05:35;;;;;;;56.35;34.60;;;15.40;99.90;;;;;;4992075;28;20042;-57
2021/06/07 02:08:04;;;;;;;53.53;33.58;;;15.40;99.90;;;;;;4982463;28;20052;-60
2021/06/07 02:10:32;;;;;;;48.75;32.92;;;15.40;99.90;;;;;;4989605;28;20133;-59
2021/06/07 02:12:58;;;;;;;51.17;31.50;;;15.40;99.90;;;;;;4998938;28;20440;-60
2021/06/07 02:15:24;;;;;;;49.92;33.40;;;15.40;99.90;;;;;;5004540;28;20034;-58
2021/06/07 02:17:50;;;;;;;50.60;32.20;;;15.30;99.90;;;;;;4994462;28;20492;-59
2021/06/07 02:20:19;;;;;;;51.28;33.58;;;15.30;99.90;;;;;;4990919;28;20038;-58
2021/06/07 02:22:46;;;;;;;49.55;32.50;;;15.30;99.90;;;;;;5003562;28;20030;-56
2021/06/07 02:25:15;;;;;;;54.90;34.42;;;15.30;99.90;;;;;;4998048;28;20042;-61
2021/06/07 02:27:41;;;;;;;52.83;35.10;;;15.30;99.90;;;;;;4996020;28;20769;-58
2021/06/07 02:30:11;;;;;;;49.55;33.58;;;15.30;99.90;;;;;;4991673;28;20702;-57
2021/06/07 02:32:37;;;;;;;52.72;33.88;;;15.30;99.90;;;;;;4998330;28;20403;-53
2021/06/07 02:35:09;;;;;;;48.38;33.63;;;15.30;99.90;;;;;;4998114;28;20041;-59
2021/06/07 02:37:35;;;;;;;52.95;35.80;;;15.30;99.90;;;;;;4990352;28;20030;-58
2021/06/07 02:40:03;;;;;;;54.85;37.10;;;15.30;99.90;;;;;;4992854;28;20093;-58
2021/06/07 02:42:29;;;;;;;58.22;37.58;;;15.30;99.90;;;;;;4980887;28;20031;-57
2021/06/07 02:44:54;;;;;;;57.13;38.63;;;15.30;99.90;;;;;;4978638;28;20240;-55
2021/06/07 02:47:20;;;;;;;54.28;37.22;;;15.30;99.90;;;;;;4979468;28;20050;-59
2021/06/07 02:49:46;;;;;;;61.08;37.85;;;15.30;99.90;;;;;;4980569;28;20051;-57
2021/06/07 02:52:11;;;;;;;56.88;38.60;;;15.30;99.90;;;;;;4989471;28;20039;-60
2021/06/07 02:54:37;;;;;;;57.63;38.80;;;15.40;99.90;;;;;;4980922;28;20031;-57
2021/06/07 02:57:04;;;;;;;63.90;41.33;;;15.40;99.90;;;;;;4991629;28;20497;-59
2021/06/07 02:59:30;;;;;;;61.10;40.55;;;15.40;99.90;;;;;;4981855;28;20060;-58
2021/06/07 03:01:55;;;;;;;60.25;41.67;;;15.40;99.90;;;;;;4989516;28;20026;-57
2021/06/07 03:04:21;;;;;;;63.92;41.08;;;15.40;99.90;;;;;;4989510;28;20035;-58
2021/06/07 03:06:47;;;;;;;62.30;41.33;;;15.40;99.90;;;;;;4997418;28;20496;-58
2021/06/07 03:09:12;;;;;;;66.00;44.17;;;15.40;99.90;;;;;;4992466;28;20112;-60
2021/06/07 03:11:38;;;;;;;66.63;44.22;;;15.30;99.90;;;;;;4993996;28;20046;-58
2021/06/07 03:14:04;;;;;;;67.53;45.10;;;15.20;99.90;;;;;;5007958;28;20488;-58
2021/06/07 03:16:29;;;;;;;67.57;46.15;;;15.20;99.90;;;;;;4999473;28;20041;-57
2021/06/07 03:18:55;;;;;;;62.58;43.30;;;15.20;99.90;;;;;;5003718;28;20030;-60
2021/06/07 03:21:20;;;;;;;65.43;45.03;;;15.20;99.90;;;;;;4993294;28;20049;-59
2021/06/07 03:23:46;;;;;;;76.25;46.10;;;15.20;99.90;;;;;;4983927;28;20030;-59
2021/06/07 03:26:11;;;;;;;66.72;45.22;;;15.10;99.90;;;;;;4992490;28;20490;-59
2021/06/07 03:28:38;;;;;;;67.13;45.20;;;15.10;99.90;;;;;;4983395;28;20099;-61
2021/06/07 03:31:06;;;;;;;67.78;43.65;;;15.20;99.90;;;;;;5000206;28;20030;-58
2021/06/07 03:33:32;;;;;;;68.65;45.50;;;15.20;99.90;;;;;;4995412;28;20037;-57
2021/06/07 03:35:58;;;;;;;66.78;46.58;;;15.20;99.90;;;;;;4998221;28;20030;-58
2021/06/07 03:38:25;;;;;;;66.28;43.85;;;15.10;99.90;;;;;;5001785;28;20033;-59
2021/06/07 03:40:53;;;;;;;72.30;44.08;;;15.10;99.90;;;;;;5000941;28;20038;-60
2021/06/07 03:43:21;;;;;;;67.32;43.22;;;15.10;99.90;;;;;;4992845;28;20077;-58
2021/06/07 03:45:46;;;;;;;71.47;45.47;;;15.20;99.90;;;;;;5001181;28;20034;-58
2021/06/07 03:48:12;;;;;;;63.00;43.53;;;15.20;99.90;;;;;;5008135;28;20041;-59
2021/06/07 03:50:39;;;;;;;69.35;45.22;;;15.20;99.90;;;;;;5002291;28;20537;-58
2021/06/07 03:53:05;;;;;;;68.32;44.17;;;15.30;99.90;;;;;;5004576;28;20061;-58
2021/06/07 03:55:32;;;;;;;65.10;43.00;;;15.30;99.90;;;;;;4994613;28;20659;-59
2021/06/07 03:57:58;;;;;;;58.95;39.95;;;15.30;99.90;;;;;;5004237;28;20029;-58
2021/06/07 04:00:29;;;;;;;59.55;39.10;;;15.40;99.90;;;;;;4999604;28;20084;-60
2021/06/07 04:02:56;;;;;;;60.97;39.38;;;15.40;99.90;;;;;;4998339;28;20413;-59
2021/06/07 04:05:22;;;;;;;63.05;40.55;;;15.40;99.90;;;;;;5002531;28;20034;-57
2021/06/07 04:07:48;;;;;;;51.33;36.10;;;15.50;99.90;;;;;;4984078;28;20027;-59
2021/06/07 04:10:17;;;;;;;51.25;36.67;;;15.50;99.90;;;;;;4984489;28;20042;-59
2021/06/07 04:12:44;;;;;;;53.45;35.40;;;15.50;99.90;;;;;;4984713;28;20587;-56
2021/06/07 04:15:10;;;;;;;53.63;36.90;;;15.50;99.90;;;;;;4983289;28;20023;-57
2021/06/07 04:17:37;;;;;;;55.40;36.25;;;15.60;99.90;;;;;;4979061;28;20046;-58
2021/06/07 04:20:11;;;;;;;48.72;34.63;;;15.60;99.90;;;;;;4984641;28;20034;-58
2021/06/07 04:22:37;;;;;;;48.78;32.92;;;15.60;99.90;;;;;;4986558;28;20034;-57
2021/06/07 04:25:04;;;;;;;45.10;34.28;;;15.70;99.90;;;;;;4984502;28;20041;-57
2021/06/07 04:27:30;;;;;;;54.10;34.10;;;15.70;99.90;;;;;;4989483;28;20129;-58
2021/06/07 04:29:55;;;;;;;46.00;33.47;;;15.70;99.90;;;;;;5002953;28;20101;-59
2021/06/07 04:32:21;;;;;;;44.28;33.47;;;15.70;99.90;;;;;;4999806;28;20419;-58
2021/06/07 04:34:47;;;;;;;47.85;32.88;;;15.70;99.90;;;;;;5005555;28;20038;-60
2021/06/07 04:37:13;;;;;;;46.25;33.38;;;15.70;99.90;;;;;;4999520;28;20488;-59
2021/06/07 04:39:38;;;;;;;49.95;34.47;;;15.80;99.90;;;;;;5004985;28;20025;-57
2021/06/07 04:42:05;;;;;;;46.08;32.17;;;15.80;99.90;;;;;;4990634;28;20041;-59
2021/06/07 04:44:31;;;;;;;45.55;31.10;;;15.90;99.90;;;;;;4989849;28;20049;-58
2021/06/07 04:46:57;;;;;;;44.03;32.63;;;15.90;99.90;;;;;;4991140;28;20061;-59
2021/06/07 04:49:23;;;;;;;45.92;33.08;;;15.90;99.90;;;;;;4994607;28;20034;-59
2021/06/07 04:51:48;;;;;;;40.55;31.20;;;15.90;99.90;;;;;;5006380;28;20520;-60
2021/06/07 04:54:14;;;;;;;42.53;31.67;;;15.90;99.90;;;;;;5000410;28;20026;-58
2021/06/07 04:56:39;;;;;;;43.65;30.73;;;15.90;99.90;;;;;;4982686;28;20033;-58
2021/06/07 04:59:05;;;;;;;38.72;29.92;;;15.90;99.90;;;;;;4999568;28;20029;-58
2021/06/07 05:01:31;;;;;;;39.60;29.70;;;15.90;99.90;;;;;;4996208;28;20029;-58
2021/06/07 05:03:56;;;;;;;44.50;31.10;;;16.00;99.90;;;;;;4986214;28;20026;-59
2021/06/07 05:06:22;;;;;;;39.95;30.20;;;16.10;99.90;;;;;;4982082;28;20034;-60
2021/06/07 05:08:47;;;;;;;40.88;30.92;;;16.30;99.90;;;;;;4996711;28;20082;-57
2021/06/07 05:11:13;;;;;;;32.95;24.30;;;16.80;99.90;;;;;;4993751;28;20030;-60
2021/06/07 05:13:39;;;;;;;27.02;21.00;;;18.00;99.90;;;;;;5006686;28;20045;-59
2021/06/07 05:16:04;;;;;;;25.80;18.77;;;19.00;99.90;;;;;;4978991;28;20105;-61
2021/06/07 05:18:32;;;;;;;27.23;20.33;;;19.80;99.90;;;;;;4988705;28;20033;-58
2021/06/07 05:20:58;;;;;;;23.48;19.58;;;20.70;99.90;;;;;;4982036;28;20595;-59
2021/06/07 05:23:23;;;;;;;25.45;19.35;;;21.30;99.90;;;;;;4990509;28;20030;-59
2021/06/07 05:25:49;;;;;;;24.27;18.23;;;22.40;99.90;;;;;;4997954;28;20387;-58
2021/06/07 05:28:17;;;;;;;22.67;19.10;;;23.20;99.90;;;;;;4980982;28;20553;-61
2021/06/07 05:30:44;;;;;;;22.45;18.13;;;23.90;99.90;;;;;;4980651;28;20037;-60
2021/06/07 05:33:10;;;;;;;19.65;17.52;;;24.90;99.40;;;;;;4981660;28;20039;-56
2021/06/07 05:35:41;;;;;;;23.58;18.75;;;25.40;98.60;;;;;;4981109;28;20101;-58
2021/06/07 05:38:08;;;;;;;22.58;18.73;;;25.50;97.60;;;;;;4981564;28;20037;-55
2021/06/07 05:40:36;;;;;;;21.98;18.33;;;25.20;96.60;;;;;;4982003;28;20655;-58
2021/06/07 05:43:02;;;;;;;23.73;17.83;;;25.70;96.30;;;;;;4979557;28;20034;-56
2021/06/07 05:45:28;;;;;;;21.35;19.05;;;25.20;96.20;;;;;;4980998;28;20616;-53
2021/06/07 05:47:56;;;;;;;22.05;18.52;;;24.00;98.40;;;;;;4984512;28;20026;-60
2021/06/07 05:50:23;;;;;;;20.50;18.23;;;23.30;99.80;;;;;;4979756;28;20088;-58
2021/06/07 05:52:50;;;;;;;22.83;19.90;;;22.30;99.90;;;;;;4980561;28;20026;-58
2021/06/07 05:55:20;;;;;;;28.58;21.63;;;21.60;99.90;;;;;;4980528;28;20053;-59
2021/06/07 05:57:48;;;;;;;26.05;19.35;;;21.10;99.90;;;;;;4980916;28;20575;-59
2021/06/07 06:00:17;;;;;;;25.23;20.27;;;20.70;99.90;;;;;;4981052;28;20068;-59
2021/06/07 06:02:43;;;;;;;27.63;20.38;;;20.50;99.90;;;;;;4990105;28;20045;-59
2021/06/07 06:05:09;;;;;;;23.65;19.35;;;20.10;99.90;;;;;;5000343;28;20479;-59
2021/06/07 06:07:35;;;;;;;23.45;19.90;;;20.10;99.90;;;;;;4995406;28;20179;-60
2021/06/07 06:10:00;;;;;;;28.23;21.38;;;19.90;99.90;;;;;;4998338;28;20491;-60
2021/06/07 06:12:27;;;;;;;27.25;20.30;;;20.00;99.90;;;;;;4987470;28;20038;-59
2021/06/07 06:14:53;;;;;;;24.85;17.52;;;20.10;99.90;;;;;;5002223;28;20112;-59
2021/06/07 06:17:19;;;;;;;22.10;18.25;;;19.80;99.90;;;;;;4986698;28;20109;-58
2021/06/07 06:19:44;;;;;;;24.92;17.85;;;19.70;99.90;;;;;;4997843;28;20022;-59
2021/06/07 06:22:10;;;;;;;22.38;18.08;;;19.70;99.90;;;;;;4993214;28;20169;-60
2021/06/07 06:24:36;;;;;;;23.98;19.80;;;19.60;99.90;;;;;;4999203;28;20030;-59
2021/06/07 06:27:02;;;;;;;24.95;19.98;;;19.60;99.90;;;;;;4986079;28;20365;-58
2021/06/07 06:29:28;;;;;;;27.52;19.55;;;19.50;99.90;;;;;;4988204;28;20070;-59
2021/06/07 06:31:53;;;;;;;27.50;20.00;;;19.40;99.90;;;;;;4984956;28;20045;-59
2021/06/07 06:34:19;;;;;;;26.00;20.20;;;19.00;99.90;;;;;;4980912;28;20035;-60
2021/06/07 06:36:45;;;;;;;25.02;19.20;;;19.00;99.90;;;;;;4980943;28;20042;-58
2021/06/07 06:39:11;;;;;;;25.52;20.05;;;19.10;99.90;;;;;;4979158;28;21681;-60
2021/06/07 06:41:36;;;;;;;23.92;19.85;;;19.10;99.90;;;;;;4982818;28;20065;-60
2021/06/07 06:44:03;;;;;;;26.63;19.77;;;18.90;99.90;;;;;;4987999;28;20116;-58
2021/06/07 06:46:29;;;;;;;25.17;19.25;;;18.80;99.90;;;;;;5000765;28;20032;-58
2021/06/07 06:48:54;;;;;;;23.80;17.65;;;19.00;99.90;;;;;;5004188;28;20038;-62
2021/06/07 06:51:20;;;;;;;24.05;18.80;;;19.20;99.90;;;;;;4993140;28;20038;-60
2021/06/07 06:53:45;;;;;;;23.27;17.48;;;19.30;99.90;;;;;;4999143;28;20069;-60
2021/06/07 06:56:11;;;;;;;26.08;18.98;;;19.50;99.90;;;;;;4996915;28;20500;-60
2021/06/07 06:58:37;;;;;;;24.25;17.95;;;19.40;99.90;;;;;;4998465;28;20488;-61
2021/06/07 07:01:03;;;;;;;26.42;18.52;;;19.60;99.90;;;;;;4976738;28;20582;-61
2021/06/07 07:03:28;;;;;;;19.42;17.05;;;19.70;99.90;;;;;;5005936;28;20079;-60
2021/06/07 07:05:55;;;;;;;21.10;17.52;;;19.70;99.90;;;;;;5008194;28;20144;-60
2021/06/07 07:08:21;;;;;;;21.42;16.70;;;19.90;99.90;;;;;;5005691;28;20499;-60
2021/06/07 07:10:48;;;;;;;21.02;16.35;;;20.20;99.90;;;;;;5014595;28;20515;-60
2021/06/07 07:13:14;;;;;;;19.85;16.27;;;20.10;99.90;;;;;;5011452;28;20048;-59
2021/06/07 07:15:41;;;;;;;21.13;16.30;;;20.20;99.90;;;;;;5008901;28;20494;-58
2021/06/07 07:18:08;;;;;;;19.75;15.55;;;20.40;99.90;;;;;;5006016;28;20410;-60
2021/06/07 07:20:35;;;;;;;18.70;14.88;;;20.50;99.90;;;;;;5007669;28;20041;-59
2021/06/07 07:23:04;;;;;;;18.90;15.15;;;20.90;99.90;;;;;;5007306;28;20033;-58
2021/06/07 07:25:29;;;;;;;20.10;14.93;;;21.00;99.90;;;;;;5012086;28;20044;-58
2021/06/07 07:27:55;;;;;;;21.67;14.95;;;21.30;99.90;;;;;;5006953;28;20018;-59
2021/06/07 07:30:22;;;;;;;19.45;15.13;;;21.40;99.90;;;;;;5018923;28;20789;-60
2021/06/07 07:32:50;;;;;;;22.70;15.77;;;21.20;99.90;;;;;;5007096;28;20045;-59
2021/06/07 07:35:17;;;;;;;19.80;14.55;;;21.10;99.90;;;;;;5006486;28;20578;-60
2021/06/07 07:37:43;;;;;;;21.27;14.55;;;21.30;99.90;;;;;;5004317;28;20453;-60
2021/06/07 07:40:14;;;;;;;17.13;13.98;;;21.30;99.90;;;;;;5011504;28;20562;-60
2021/06/07 07:42:40;;;;;;;16.48;14.05;;;21.90;99.90;;;;;;5010191;28;20026;-61
2021/06/07 07:45:08;;;;;;;19.38;14.93;;;22.10;99.90;;;;;;5011877;28;20101;-59
2021/06/07 07:47:34;;;;;;;17.85;15.20;;;22.10;99.90;;;;;;5011664;28;20076;-60
2021/06/07 07:50:00;;;;;;;18.48;14.77;;;22.30;99.90;;;;;;5012083;28;20101;-60
2021/06/07 07:52:26;;;;;;;21.60;14.80;;;22.40;99.90;;;;;;5010482;28;20104;-61
2021/06/07 07:54:53;;;;;;;16.60;12.88;;;22.40;99.90;;;;;;5021763;28;20121;-60
2021/06/07 07:57:19;;;;;;;17.75;15.38;;;22.80;99.90;;;;;;5023375;28;20025;-60
2021/06/07 07:59:45;;;;;;;21.88;15.07;;;23.00;99.90;;;;;;5020227;28;20100;-58
2021/06/07 08:02:11;;;;;;;19.40;13.82;;;23.10;98.80;;;;;;4990283;28;20130;-60
2021/06/07 08:04:37;;;;;;;17.10;13.65;;;23.20;98.80;;;;;;5000349;28;20114;-60
2021/06/07 08:07:04;;;;;;;16.15;14.40;;;23.20;98.30;;;;;;4998547;28;20042;-61
2021/06/07 08:09:31;;;;;;;16.13;14.00;;;23.40;98.20;;;;;;4999609;28;20492;-60
2021/06/07 08:12:00;;;;;;;16.38;14.18;;;23.50;98.40;;;;;;4998410;28;20559;-58
2021/06/07 08:14:26;;;;;;;17.33;14.48;;;23.10;99.90;;;;;;4995941;28;20041;-59
2021/06/07 08:16:53;;;;;;;15.60;13.27;;;22.40;99.90;;;;;;4997859;28;20030;-62
2021/06/07 08:19:18;;;;;;;15.50;12.90;;;22.20;99.90;;;;;;4997549;28;20042;-60
2021/06/07 08:21:44;;;;;;;15.45;13.02;;;22.70;99.90;;;;;;4998514;28;20053;-59
2021/06/07 08:24:10;;;;;;;16.50;13.05;;;23.20;99.90;;;;;;4998117;28;20010;-60
2021/06/07 08:26:36;;;;;;;16.17;13.93;;;23.50;99.50;;;;;;4990213;28;20034;-60
2021/06/07 08:29:02;;;;;;;19.35;12.98;;;23.90;97.30;;;;;;4991837;28;20578;-59
2021/06/07 08:31:27;;;;;;;17.75;14.23;;;24.10;96.80;;;;;;4998217;28;20403;-58
2021/06/07 08:33:53;;;;;;;19.88;13.30;;;23.80;97.50;;;;;;4990496;28;20040;-60
2021/06/07 08:36:19;;;;;;;15.00;12.60;;;23.70;97.90;;;;;;4987039;28;20101;-60
2021/06/07 08:38:45;;;;;;;17.50;14.10;;;23.30;98.50;;;;;;4990992;28;20023;-60
2021/06/07 08:41:11;;;;;;;16.65;13.48;;;23.00;99.00;;;;;;4985819;28;20156;-59
2021/06/07 08:43:37;;;;;;;17.17;12.90;;;23.00;99.10;;;;;;4984256;28;20556;-58
2021/06/07 08:46:03;;;;;;;17.00;12.73;;;22.70;99.90;;;;;;4985283;28;20479;-61
2021/06/07 08:48:29;;;;;;;16.67;12.48;;;22.70;99.90;;;;;;4982417;28;20053;-59
2021/06/07 08:51:00;;;;;;;15.90;12.73;;;23.20;99.00;;;;;;4987620;28;20109;-59
2021/06/07 08:53:25;;;;;;;15.05;12.07;;;23.10;99.50;;;;;;4984556;28;20038;-61
2021/06/07 08:55:51;;;;;;;18.30;12.85;;;23.50;98.10;;;;;;4995505;28;20538;-59
2021/06/07 08:58:17;;;;;;;17.20;11.15;;;23.60;98.40;;;;;;4992777;28;20081;-61
2021/06/07 09:00:43;;;;;;;13.30;11.27;;;23.40;98.90;;;;;;4996450;28;20549;-61
2021/06/07 09:03:14;;;;;;;14.23;11.43;;;22.90;98.80;;;;;;4991864;28;20028;-60
2021/06/07 09:05:42;;;;;;;13.93;11.45;;;22.30;99.20;;;;;;4998751;28;20432;-60
2021/06/07 09:08:16;;;;;;;18.95;12.50;;;21.90;99.90;;;;;;4994811;28;20041;-60
2021/06/07 09:10:45;;;;;;;16.02;10.93;;;22.10;99.90;;;;;;5002078;28;20427;-61
2021/06/07 09:13:12;;;;;;;14.90;11.07;;;22.50;99.90;;;;;;4978391;28;20038;-60
2021/06/07 09:15:47;;;;;;;15.23;12.27;;;22.30;99.90;;;;;;4991976;28;20068;-60
2021/06/07 09:18:29;;;;;;;14.73;10.98;;;22.70;99.90;;;;;;4986061;28;20029;-59
2021/06/07 09:20:59;;;;;;;17.45;13.63;;;22.70;99.90;;;;;;4984835;28;20113;-59
2021/06/07 09:23:38;;;;;;;16.73;12.48;;;22.70;99.90;;;;;;4983854;28;20038;-60
2021/06/07 09:26:03;;;;;;;15.65;12.13;;;23.00;99.90;;;;;;4985119;28;20066;-60
2021/06/07 09:28:29;;;;;;;16.00;12.32;;;23.10;98.70;;;;;;4984100;28;20133;-60
2021/06/07 09:30:58;;;;;;;17.23;13.20;;;23.10;99.20;;;;;;4985842;28;20373;-59
2021/06/07 09:33:26;;;;;;;16.38;12.77;;;23.20;99.30;;;;;;4986545;28;20121;-59
2021/06/07 09:36:09;;;;;;;16.27;13.40;;;23.40;99.70;;;;;;4983490;28;20263;-60
2021/06/07 09:38:50;;;;;;;17.00;14.23;;;23.70;98.70;;;;;;4992640;28;20056;-59
2021/06/07 09:41:16;;;;;;;15.13;12.35;;;23.80;99.40;;;;;;5003192;28;20098;-59
2021/06/07 09:44:08;;;;;;;9.60;7.38;;;23.70;98.90;;;;;;4998842;28;20034;-60
2021/06/07 09:46:33;;;;;;;6.93;6.22;;;23.90;93.60;;;;;;4993550;28;20132;-61
2021/06/07 09:49:11;;;;;;;8.73;7.15;;;24.10;95.40;;;;;;4988546;28;20070;-60
2021/06/07 09:51:38;;;;;;;11.55;7.75;;;24.50;93.50;;;;;;4986744;28;20198;-60
2021/06/07 09:54:04;;;;;;;6.60;5.57;;;24.70;94.60;;;;;;4989057;28;20660;-60
2021/06/07 09:56:30;;;;;;;12.15;6.95;;;26.00;91.20;;;;;;4989240;28;20026;-57
2021/06/07 09:58:56;;;;;;;5.70;5.10;;;26.40;87.10;;;;;;4989849;28;20483;-58
2021/06/07 10:01:31;;;;;;;1.80;1.70;;;26.70;85.10;;;;;;4967838;28;20038;-60
2021/06/07 10:03:58;;;;;;;7.85;3.90;;;26.60;76.10;;;;;;4999910;28;20073;-59
2021/06/07 10:06:35;;;;;;;4.15;3.75;;;26.30;80.60;;;;;;4990333;28;20415;-60
2021/06/07 10:09:08;;;;;;;5.85;4.15;;;25.70;82.10;;;;;;4990227;28;20018;-58
2021/06/07 10:11:35;;;;;;;7.82;4.05;;;25.20;85.50;;;;;;4992408;28;20034;-59
2021/06/07 10:14:04;;;;;;;8.45;5.38;;;24.80;86.50;;;;;;4989541;28;20036;-54
2021/06/07 10:16:29;;;;;;;5.07;3.15;;;24.80;87.30;;;;;;4984936;28;20037;-55
2021/06/07 10:18:56;;;;;;;4.88;2.90;;;24.90;88.50;;;;;;4991871;28;20030;-60
2021/06/07 10:21:21;;;;;;;3.33;2.80;;;25.10;86.90;;;;;;4992521;28;20026;-59
2021/06/07 10:23:47;;;;;;;3.17;2.67;;;24.90;88.40;;;;;;4989068;28;20021;-60
2021/06/07 10:26:13;;;;;;;3.33;3.03;;;24.50;89.60;;;;;;4985504;28;20037;-58
2021/06/07 10:28:41;;;;;;;4.00;3.38;;;24.70;89.70;;;;;;4986138;28;20109;-59
2021/06/07 10:31:18;;;;;;;5.40;3.58;;;25.10;89.50;;;;;;4991639;28;20030;-58
2021/06/07 10:33:56;;;;;;;4.80;3.35;;;25.30;85.80;;;;;;4984028;28;20034;-61
2021/06/07 10:36:28;;;;;;;3.58;2.78;;;24.90;87.40;;;;;;4985105;28;20678;-60
2021/06/07 10:39:14;;;;;;;2.95;2.30;;;25.00;85.30;;;;;;4985453;28;20053;-60
2021/06/07 10:41:45;;;;;;;4.07;3.03;;;25.20;83.00;;;;;;4984781;28;20026;-59
2021/06/07 10:44:11;;;;;;;3.45;2.85;;;24.70;86.30;;;;;;4984774;28;20038;-59
2021/06/07 10:46:40;;;;;;;3.03;2.67;;;24.10;87.70;;;;;;4984510;28;20189;-59
2021/06/07 10:49:38;;;;;;;4.45;3.10;;;24.40;86.80;;;;;;4984428;28;20062;-58
2021/06/07 10:52:18;;;;;;;3.90;2.70;;;24.60;85.30;;;;;;4982675;28;20030;-59
2021/06/07 10:55:05;;;;;;;4.25;3.85;;;24.10;86.00;;;;;;4983970;28;20034;-59
2021/06/07 10:57:34;;;;;;;4.70;3.33;;;24.10;88.20;;;;;;4973640;28;20125;-56
2021/06/07 11:00:15;;;;;;;6.13;4.10;;;24.20;87.80;;;;;;4994892;28;20026;-59
2021/06/07 11:02:43;;;;;;;6.05;5.13;;;23.90;90.40;;;;;;4968352;28;20042;-58
2021/06/07 11:05:13;;;;;;;6.43;5.03;;;23.40;90.20;;;;;;4983155;28;20108;-58
2021/06/07 11:08:05;;;;;;;8.45;5.78;;;23.10;91.40;;;;;;4983435;28;20508;-59
2021/06/07 11:10:35;;;;;;;7.10;5.03;;;23.20;91.00;;;;;;4984600;28;20042;-59
2021/06/07 11:13:04;;;;;;;6.78;4.85;;;23.00;92.40;;;;;;4983475;28;20045;-57
2021/06/07 11:15:31;;;;;;;7.28;5.70;;;22.90;91.70;;;;;;4983098;28;20070;-59
2021/06/07 11:18:17;;;;;;;6.50;4.75;;;22.50;91.80;;;;;;4983029;28;20034;-60
2021/06/07 11:20:43;;;;;;;10.07;6.55;;;22.60;91.70;;;;;;4981844;28;20396;-58
2021/06/07 11:23:29;;;;;;;7.13;5.18;;;22.60;92.00;;;;;;4982367;28;20041;-58
2021/06/07 11:25:56;;;;;;;6.57;4.60;;;22.60;92.20;;;;;;4984050;28;20039;-58
2021/06/07 11:28:32;;;;;;;9.20;5.88;;;22.40;92.10;;;;;;4983494;28;20069;-59
2021/06/07 11:30:58;;;;;;;9.13;6.07;;;22.20;92.90;;;;;;4985279;28;20060;-57
2021/06/07 11:33:25;;;;;;;13.10;7.95;;;22.00;93.90;;;;;;4984189;28;20038;-58
2021/06/07 11:35:51;;;;;;;9.52;5.60;;;21.90;95.90;;;;;;4986102;28;20039;-58
2021/06/07 11:38:34;;;;;;;11.50;7.93;;;21.80;95.60;;;;;;4987081;28;20041;-59
2021/06/07 11:41:03;;;;;;;10.70;7.32;;;21.90;95.90;;;;;;4987915;28;20400;-58
2021/06/07 11:43:46;;;;;;;11.45;7.70;;;22.00;96.50;;;;;;4984856;28;20093;-59
2021/06/07 11:46:38;;;;;;;9.90;7.03;;;22.00;95.30;;;;;;4985080;28;20542;-57
2021/06/07 11:49:22;;;;;;;11.75;6.88;;;22.00;96.20;;;;;;4985419;28;20030;-58
2021/06/07 11:52:09;;;;;;;14.02;7.80;;;21.90;95.90;;;;;;4982423;28;20122;-59
2021/06/07 11:54:34;;;;;;;9.18;6.95;;;22.00;95.30;;;;;;4985122;28;20399;-59
2021/06/07 11:57:05;;;;;;;9.63;6.53;;;21.80;96.00;;;;;;4984428;28;20034;-60
2021/06/07 11:59:33;;;;;;;11.55;7.78;;;21.90;97.00;;;;;;4990996;28;20566;-59
2021/06/07 12:01:59;;;;;;;11.75;7.80;;;22.00;95.90;;;;;;4976413;28;20054;-59
2021/06/07 12:04:31;;;;;;;10.10;7.82;;;21.90;96.10;;;;;;4993682;28;20023;-59
2021/06/07 12:07:11;;;;;;;9.80;7.00;;;21.90;96.30;;;;;;4986382;28;20030;-59
2021/06/07 12:09:39;;;;;;;9.77;6.93;;;21.90;95.80;;;;;;4989064;28;20050;-56
2021/06/07 12:12:06;;;;;;;7.85;5.97;;;21.90;95.30;;;;;;4985396;28;20022;-59
2021/06/07 12:14:33;;;;;;;9.75;6.03;;;21.90;95.70;;;;;;4978525;28;20468;-58
2021/06/07 12:17:17;;;;;;;6.85;5.50;;;22.00;95.50;;;;;;4983778;28;20072;-59
2021/06/07 12:19:44;;;;;;;;;;;22.10;96.30;;;;;;4985588;28;20031;-57
2021/06/07 12:22:39;;;;;;;7.90;6.00;;;22.30;94.70;;;;;;4986375;28;19940;-59
2021/06/07 12:25:32;;;;;;;6.70;5.07;;;22.20;96.00;;;;;;4986899;28;20014;-57
2021/06/07 12:28:20;;;;;;;8.32;4.60;;;22.50;94.70;;;;;;4991037;28;20139;-58
2021/06/07 12:30:53;;;;;;;6.85;4.95;;;22.90;94.30;;;;;;4993875;28;20026;-58
2021/06/07 12:33:33;;;;;;;6.35;4.47;;;23.10;92.70;;;;;;4985617;28;20026;-57
2021/06/07 12:36:01;;;;;;;7.65;4.63;;;23.10;93.00;;;;;;4985360;28;20042;-58